Time;durP1;ratioP1;P1;durP2;ratioP2;P2;SDS_P1;SDS_P2;PMS_P1;PMS_P2;Temp;Humidity;BMP_temperature;BMP_pressure;BME280_temperature;BME280_humidity;BME280_pressure;Samples;Min_cycle;Max_cycle;Signal;HPM_P1;HPM_P2
2023/08/14 00:00:15;;;;;;;4.25;2.42;;;;;;;;;;5041691;28;20029;-83
2023/08/14 00:02:40;;;;;;;3.63;2.00;;;;;;;;;;5048398;28;20029;-82
2023/08/14 00:05:05;;;;;;;6.22;2.35;;;;;;;;;;5044228;28;20037;-80
2023/08/14 00:07:31;;;;;;;2.13;1.92;;;;;;;;;;5044580;28;20068;-80
2023/08/14 00:09:56;;;;;;;2.70;2.00;;;;;;;;;;5042004;28;20083;-82
2023/08/14 00:12:21;;;;;;;3.53;2.25;;;;;;;;;;5042940;28;20040;-82
2023/08/14 00:14:47;;;;;;;1.90;1.80;;;;;;;;;;5047308;28;20030;-81
2023/08/14 00:17:12;;;;;;;1.90;1.80;;;;;;;;;;5042683;28;20048;-80
2023/08/14 00:19:37;;;;;;;2.10;1.90;;;;;;;;;;5042324;28;20515;-82
2023/08/14 00:22:03;;;;;;;2.30;2.10;;;;;;;;;;5041473;28;20033;-83
2023/08/14 00:24:28;;;;;;;2.80;1.83;;;;;;;;;;5050155;28;20056;-81
2023/08/14 00:26:53;;;;;;;2.65;2.00;;;;;;;;;;5046111;28;20025;-83
2023/08/14 00:29:19;;;;;;;3.30;2.20;;;;;;;;;;5045954;28;20091;-82
2023/08/14 00:31:44;;;;;;;5.07;2.00;;;;;;;;;;5046051;28;20049;-82
2023/08/14 00:34:09;;;;;;;3.08;1.60;;;;;;;;;;5040906;28;20036;-82
2023/08/14 00:36:34;;;;;;;2.88;1.90;;;;;;;;;;5039367;28;20045;-82
2023/08/14 00:39:00;;;;;;;6.90;2.17;;;;;;;;;;5050978;28;20479;-81
2023/08/14 00:41:25;;;;;;;1.90;1.75;;;;;;;;;;5026665;28;20083;-80
2023/08/14 00:43:51;;;;;;;6.10;1.85;;;;;;;;;;5049327;28;20097;-82
2023/08/14 00:46:18;;;;;;;1.80;1.70;;;;;;;;;;5045324;28;20029;-83
2023/08/14 00:48:43;;;;;;;2.10;1.75;;;;;;;;;;5048630;28;20064;-82
2023/08/14 00:51:08;;;;;;;1.58;1.48;;;;;;;;;;5046302;28;20022;-80
2023/08/14 00:53:34;;;;;;;2.05;1.70;;;;;;;;;;5045144;28;20025;-80
2023/08/14 00:56:01;;;;;;;1.52;1.42;;;;;;;;;;5046646;28;20064;-80
2023/08/14 00:58:27;;;;;;;4.00;1.73;;;;;;;;;;5050137;28;20029;-80
2023/08/14 01:00:54;;;;;;;1.70;1.48;;;;;;;;;;5043315;28;20033;-80
2023/08/14 01:03:20;;;;;;;1.63;1.52;;;;;;;;;;5050157;28;20116;-81
2023/08/14 01:05:45;;;;;;;1.60;1.40;;;;;;;;;;5053166;28;20042;-81
2023/08/14 01:08:11;;;;;;;1.92;1.80;;;;;;;;;;5047406;28;20332;-82
2023/08/14 01:10:45;;;;;;;3.70;1.60;;;;;;;;;;5040142;28;20053;-84
2023/08/14 01:13:20;;;;;;;2.05;1.70;;;;;;;;;;5041764;28;20029;-83
2023/08/14 01:15:49;;;;;;;1.90;1.80;;;;;;;;;;5058347;28;20029;-82
2023/08/14 01:18:17;;;;;;;4.10;2.00;;;;;;;;;;5056962;28;20025;-84
2023/08/14 01:20:50;;;;;;;2.20;2.00;;;;;;;;;;5056082;28;20565;-82
2023/08/14 01:23:30;;;;;;;2.50;2.10;;;;;;;;;;5053469;28;20040;-81
2023/08/14 01:25:56;;;;;;;5.78;2.00;;;;;;;;;;5023579;28;20370;-82
2023/08/14 01:28:22;;;;;;;4.13;2.28;;;;;;;;;;5039600;28;20453;-82
2023/08/14 01:30:47;;;;;;;2.95;2.22;;;;;;;;;;5030672;28;20068;-83
2023/08/14 01:33:12;;;;;;;2.40;2.20;;;;;;;;;;5053374;28;20040;-83
2023/08/14 01:35:58;;;;;;;2.40;2.20;;;;;;;;;;5051574;28;20130;-80
2023/08/14 01:38:38;;;;;;;3.75;2.20;;;;;;;;;;5046751;28;20033;-80
2023/08/14 01:41:15;;;;;;;3.92;2.60;;;;;;;;;;5058988;28;20037;-84
2023/08/14 01:43:49;;;;;;;3.10;2.80;;;;;;;;;;5041559;28;20028;-82
2023/08/14 01:46:16;;;;;;;5.85;2.88;;;;;;;;;;5027730;28;20025;-83
2023/08/14 01:48:43;;;;;;;3.67;2.47;;;;;;;;;;5049427;28;20522;-83
2023/08/14 01:51:10;;;;;;;4.32;2.70;;;;;;;;;;5045070;28;20032;-83
2023/08/14 01:53:36;;;;;;;2.88;2.67;;;;;;;;;;5022006;28;20026;-83
2023/08/14 01:56:01;;;;;;;5.78;3.17;;;;;;;;;;5055149;28;20059;-84
2023/08/14 01:58:27;;;;;;;4.18;3.25;;;;;;;;;;5047184;28;20059;-84
2023/08/14 02:00:52;;;;;;;4.82;3.47;;;;;;;;;;5010429;28;20033;-83
2023/08/14 02:03:18;;;;;;;7.10;3.20;;;;;;;;;;5047442;28;20028;-83
2023/08/14 02:05:43;;;;;;;3.78;3.47;;;;;;;;;;5040897;28;20025;-82
2023/08/14 02:08:08;;;;;;;3.33;3.03;;;;;;;;;;5044861;28;20086;-81
2023/08/14 02:10:33;;;;;;;3.75;3.17;;;;;;;;;;5045471;28;20129;-82
2023/08/14 02:12:59;;;;;;;3.67;3.38;;;;;;;;;;5045778;28;20060;-83
2023/08/14 02:15:24;;;;;;;4.07;3.47;;;;;;;;;;5015752;28;20034;-79
2023/08/14 02:17:50;;;;;;;5.72;3.28;;;;;;;;;;5040229;28;20021;-83
2023/08/14 02:20:15;;;;;;;4.80;3.22;;;;;;;;;;5040716;28;20037;-82
2023/08/14 02:22:41;;;;;;;7.25;3.97;;;;;;;;;;5026454;28;20062;-82
2023/08/14 02:25:06;;;;;;;3.45;3.15;;;;;;;;;;5047233;28;20036;-82
2023/08/14 02:27:31;;;;;;;5.75;3.35;;;;;;;;;;5025826;28;20041;-83
2023/08/14 02:29:57;;;;;;;6.18;3.10;;;;;;;;;;5029336;28;20025;-83
2023/08/14 02:32:22;;;;;;;3.75;3.20;;;;;;;;;;5023106;28;20029;-83
2023/08/14 02:34:50;;;;;;;4.68;3.58;;;;;;;;;;5034612;28;20538;-83
2023/08/14 02:37:17;;;;;;;5.70;3.78;;;;;;;;;;5038606;28;20147;-82
2023/08/14 02:39:43;;;;;;;4.80;3.78;;;;;;;;;;5045442;28;20026;-81
2023/08/14 02:42:09;;;;;;;5.05;4.32;;;;;;;;;;5012831;28;20032;-82
2023/08/14 02:44:35;;;;;;;11.13;5.43;;;;;;;;;;5021468;28;20060;-81
2023/08/14 02:47:01;;;;;;;7.32;4.20;;;;;;;;;;5028001;28;20040;-82
2023/08/14 02:49:27;;;;;;;6.25;4.63;;;;;;;;;;5025092;28;20041;-82
2023/08/14 02:51:53;;;;;;;7.82;4.60;;;;;;;;;;5040086;28;20585;-81
2023/08/14 02:54:18;;;;;;;6.32;3.85;;;;;;;;;;5030058;28;20029;-83
2023/08/14 02:56:44;;;;;;;5.10;4.60;;;;;;;;;;5041837;28;20025;-83
2023/08/14 02:59:09;;;;;;;5.60;4.15;;;;;;;;;;5038126;28;20086;-82
2023/08/14 03:01:34;;;;;;;7.65;5.32;;;;;;;;;;5040668;28;20173;-82
2023/08/14 03:04:00;;;;;;;8.73;4.65;;;;;;;;;;5037777;28;20037;-82
2023/08/14 03:06:29;;;;;;;5.30;4.63;;;;;;;;;;5040719;28;20026;-83
2023/08/14 03:08:55;;;;;;;6.40;4.45;;;;;;;;;;5012733;28;20473;-82
2023/08/14 03:11:20;;;;;;;6.47;4.50;;;;;;;;;;5023054;28;20096;-82
2023/08/14 03:13:46;;;;;;;9.63;5.10;;;;;;;;;;5028253;28;20042;-81
2023/08/14 03:16:11;;;;;;;6.63;4.20;;;;;;;;;;5041440;28;20025;-80
2023/08/14 03:18:36;;;;;;;7.70;4.47;;;;;;;;;;5055855;28;20029;-81
2023/08/14 03:21:02;;;;;;;7.40;4.13;;;;;;;;;;5046374;28;20025;-79
2023/08/14 03:23:27;;;;;;;5.47;3.88;;;;;;;;;;5030946;28;20428;-81
2023/08/14 03:25:52;;;;;;;4.15;3.80;;;;;;;;;;5042230;28;20063;-81
2023/08/14 03:28:18;;;;;;;6.60;4.32;;;;;;;;;;5038904;28;20603;-79
2023/08/14 03:30:43;;;;;;;7.40;4.32;;;;;;;;;;5039949;28;20030;-83
2023/08/14 03:33:09;;;;;;;7.00;3.85;;;;;;;;;;5039298;28;20025;-84
2023/08/14 03:35:35;;;;;;;3.53;3.22;;;;;;;;;;5038678;28;20049;-81
2023/08/14 03:38:00;;;;;;;4.22;3.17;;;;;;;;;;5063932;23;20565;-79
2023/08/14 03:40:25;;;;;;;4.93;3.65;;;;;;;;;;5064515;28;20035;-78
2023/08/14 03:42:51;;;;;;;3.78;3.42;;;;;;;;;;5072116;28;20061;-78
2023/08/14 03:45:16;;;;;;;3.10;2.90;;;;;;;;;;5047747;28;20024;-79
2023/08/14 03:47:42;;;;;;;5.07;3.30;;;;;;;;;;5057293;28;20035;-78
2023/08/14 03:50:08;;;;;;;3.28;2.97;;;;;;;;;;5038363;28;20128;-78
2023/08/14 03:52:33;;;;;;;3.25;2.95;;;;;;;;;;5057139;28;20045;-78
2023/08/14 03:54:58;;;;;;;3.40;3.00;;;;;;;;;;5060935;28;20064;-78
2023/08/14 03:57:24;;;;;;;5.90;3.28;;;;;;;;;;5058881;28;20576;-78
2023/08/14 03:59:49;;;;;;;3.65;3.00;;;;;;;;;;5042653;28;20079;-78
2023/08/14 04:02:14;;;;;;;3.45;2.80;;;;;;;;;;5041039;28;20096;-79
2023/08/14 04:04:40;;;;;;;6.57;2.78;;;;;;;;;;5047680;28;20021;-79
2023/08/14 04:07:05;;;;;;;4.05;2.85;;;;;;;;;;5060049;28;20056;-80
2023/08/14 04:09:30;;;;;;;3.10;2.80;;;;;;;;;;5060005;28;20041;-79
2023/08/14 04:11:56;;;;;;;5.10;2.67;;;;;;;;;;5044397;28;20028;-79
2023/08/14 04:14:22;;;;;;;6.38;2.80;;;;;;;;;;5064109;28;20033;-79
2023/08/14 04:16:48;;;;;;;6.15;3.20;;;;;;;;;;5059552;28;20438;-79
2023/08/14 04:19:15;;;;;;;4.65;2.80;;;;;;;;;;5061320;28;20025;-79
2023/08/14 04:21:42;;;;;;;7.55;2.95;;;;;;;;;;5055545;28;20048;-79
2023/08/14 04:24:08;;;;;;;3.15;2.85;;;;;;;;;;5060411;28;20036;-79
2023/08/14 04:26:34;;;;;;;5.72;3.03;;;;;;;;;;5056892;28;20040;-80
2023/08/14 04:28:59;;;;;;;3.83;3.03;;;;;;;;;;5061486;28;20059;-79
2023/08/14 04:31:25;;;;;;;4.18;2.42;;;;;;;;;;5059729;28;20049;-79
2023/08/14 04:33:51;;;;;;;5.38;2.78;;;;;;;;;;5059338;28;20026;-78
2023/08/14 04:36:16;;;;;;;2.70;2.50;;;;;;;;;;5060984;28;20115;-78
2023/08/14 04:38:41;;;;;;;2.60;2.40;;;;;;;;;;5063017;28;20040;-78
2023/08/14 04:41:06;;;;;;;5.00;2.88;;;;;;;;;;5061146;28;20030;-78
2023/08/14 04:43:32;;;;;;;4.68;2.17;;;;;;;;;;5062378;28;20060;-79
2023/08/14 04:45:58;;;;;;;3.67;2.40;;;;;;;;;;5056680;28;20045;-79
2023/08/14 04:48:23;;;;;;;3.55;2.85;;;;;;;;;;5058961;28;20041;-79
2023/08/14 04:50:48;;;;;;;3.70;2.50;;;;;;;;;;5058596;28;20048;-79
2023/08/14 04:53:14;;;;;;;2.70;2.30;;;;;;;;;;5063243;28;20376;-77
2023/08/14 04:55:39;;;;;;;2.92;2.10;;;;;;;;;;5043086;28;20037;-79
2023/08/14 04:58:04;;;;;;;2.38;2.17;;;;;;;;;;5062916;28;20021;-79
2023/08/14 05:00:30;;;;;;;3.00;2.33;;;;;;;;;;5055844;28;20068;-79
2023/08/14 05:02:55;;;;;;;3.55;2.20;;;;;;;;;;5059390;28;20032;-79
2023/08/14 05:05:20;;;;;;;2.95;2.50;;;;;;;;;;5035852;28;20037;-80
2023/08/14 05:07:46;;;;;;;3.60;2.20;;;;;;;;;;5037758;28;20037;-79
2023/08/14 05:10:12;;;;;;;3.50;2.10;;;;;;;;;;5056291;28;20037;-79
2023/08/14 05:12:37;;;;;;;2.13;1.95;;;;;;;;;;5051600;28;20097;-78
2023/08/14 05:15:03;;;;;;;3.10;2.28;;;;;;;;;;5056607;28;20029;-80
2023/08/14 05:17:28;;;;;;;4.07;2.40;;;;;;;;;;5057991;28;20044;-80
2023/08/14 05:19:53;;;;;;;2.80;2.60;;;;;;;;;;5059165;28;20041;-79
2023/08/14 05:22:22;;;;;;;3.30;3.00;;;;;;;;;;5060778;28;20025;-80
2023/08/14 05:24:47;;;;;;;3.40;2.85;;;;;;;;;;5055469;28;20043;-79
2023/08/14 05:27:12;;;;;;;3.03;2.80;;;;;;;;;;5057906;28;20012;-78
2023/08/14 05:29:38;;;;;;;3.25;2.95;;;;;;;;;;5057924;28;20021;-79
2023/08/14 05:32:04;;;;;;;4.15;2.90;;;;;;;;;;5051778;28;20041;-79
2023/08/14 05:34:30;;;;;;;4.82;3.35;;;;;;;;;;5049402;28;20041;-79
2023/08/14 05:36:55;;;;;;;3.08;2.78;;;;;;;;;;5058767;28;20259;-79
2023/08/14 05:39:21;;;;;;;2.55;2.35;;;;;;;;;;5047477;28;20495;-80
2023/08/14 05:41:46;;;;;;;2.80;2.60;;;;;;;;;;5058923;28;20027;-80
2023/08/14 05:44:11;;;;;;;2.42;2.22;;;;;;;;;;5058803;28;20120;-79
2023/08/14 05:46:36;;;;;;;2.55;2.20;;;;;;;;;;5043451;28;20056;-79
2023/08/14 05:49:02;;;;;;;2.58;2.38;;;;;;;;;;5035704;28;20030;-80
2023/08/14 05:51:27;;;;;;;2.45;2.28;;;;;;;;;;5058743;28;20029;-79
2023/08/14 05:53:55;;;;;;;2.40;2.20;;;;;;;;;;5041455;28;20033;-80
2023/08/14 05:56:21;;;;;;;2.40;2.00;;;;;;;;;;5040219;28;20167;-79
2023/08/14 05:58:46;;;;;;;5.47;2.28;;;;;;;;;;5058089;28;20057;-79
2023/08/14 06:01:12;;;;;;;2.30;2.10;;;;;;;;;;5056391;28;20087;-77
2023/08/14 06:03:38;;;;;;;1.73;1.63;;;;;;;;;;5049395;28;20047;-79
2023/08/14 06:06:04;;;;;;;3.08;2.28;;;;;;;;;;5037672;28;20052;-79
2023/08/14 06:08:29;;;;;;;3.55;2.40;;;;;;;;;;5038482;28;20061;-79
2023/08/14 06:10:54;;;;;;;3.03;2.28;;;;;;;;;;5037670;28;20109;-79
2023/08/14 06:13:20;;;;;;;3.67;2.47;;;;;;;;;;5019688;28;20033;-79
2023/08/14 06:15:45;;;;;;;3.03;2.42;;;;;;;;;;5036029;28;20093;-79
2023/08/14 06:18:10;;;;;;;5.85;2.30;;;;;;;;;;5019034;28;20024;-80
2023/08/14 06:20:36;;;;;;;2.72;2.20;;;;;;;;;;5020299;28;20384;-79
2023/08/14 06:23:01;;;;;;;3.75;2.50;;;;;;;;;;5036260;28;20384;-80
2023/08/14 06:25:29;;;;;;;5.63;2.53;;;;;;;;;;5017033;28;20033;-79
2023/08/14 06:27:55;;;;;;;2.33;2.00;;;;;;;;;;5035338;28;20120;-79
2023/08/14 06:30:21;;;;;;;3.95;2.00;;;;;;;;;;5019536;28;20060;-79
2023/08/14 06:32:47;;;;;;;2.63;1.75;;;;;;;;;;5020198;28;20029;-79
2023/08/14 06:35:12;;;;;;;1.90;1.80;;;;;;;;;;5038227;28;20048;-79
2023/08/14 06:37:37;;;;;;;3.33;1.98;;;;;;;;;;5036511;28;20034;-79
2023/08/14 06:40:03;;;;;;;2.25;1.80;;;;;;;;;;5038142;28;20037;-79
2023/08/14 06:42:29;;;;;;;1.90;1.80;;;;;;;;;;5035475;28;20025;-78
2023/08/14 06:44:54;;;;;;;2.10;1.92;;;;;;;;;;5054008;28;20032;-78
2023/08/14 06:47:20;;;;;;;4.15;2.10;;;;;;;;;;5035923;28;20034;-78
2023/08/14 06:49:45;;;;;;;3.97;2.40;;;;;;;;;;5035671;28;20034;-78
2023/08/14 06:52:11;;;;;;;5.68;2.08;;;;;;;;;;5033495;28;20025;-78
2023/08/14 06:54:36;;;;;;;4.45;2.10;;;;;;;;;;5034258;28;20037;-78
2023/08/14 06:57:02;;;;;;;1.85;1.75;;;;;;;;;;5050054;28;20043;-78
2023/08/14 06:59:29;;;;;;;1.80;1.70;;;;;;;;;;5054629;28;20036;-77
2023/08/14 07:01:55;;;;;;;1.95;1.85;;;;;;;;;;5053476;28;20055;-81
2023/08/14 07:04:21;;;;;;;2.10;2.00;;;;;;;;;;5037857;28;20422;-78
2023/08/14 07:06:46;;;;;;;2.00;1.80;;;;;;;;;;5054558;28;20040;-78
2023/08/14 07:09:14;;;;;;;4.35;1.80;;;;;;;;;;5044358;28;20041;-78
2023/08/14 07:11:39;;;;;;;1.85;1.75;;;;;;;;;;5034314;28;20029;-78
2023/08/14 07:14:06;;;;;;;2.03;1.80;;;;;;;;;;5034223;28;20034;-78
2023/08/14 07:16:31;;;;;;;3.00;1.92;;;;;;;;;;5034701;28;20128;-78
2023/08/14 07:18:57;;;;;;;2.25;1.80;;;;;;;;;;5034665;28;20761;-78
2023/08/14 07:21:22;;;;;;;3.55;1.88;;;;;;;;;;5034420;28;21479;-78
2023/08/14 07:23:47;;;;;;;6.63;2.08;;;;;;;;;;5018756;28;20403;-77
2023/08/14 07:26:12;;;;;;;3.55;1.83;;;;;;;;;;5018713;28;20045;-78
2023/08/14 07:28:41;;;;;;;2.65;1.90;;;;;;;;;;5042256;28;20037;-80
2023/08/14 07:31:07;;;;;;;2.63;2.35;;;;;;;;;;5055357;28;20025;-77
2023/08/14 07:33:34;;;;;;;2.70;2.10;;;;;;;;;;5046701;28;20041;-78
2023/08/14 07:35:59;;;;;;;3.80;2.42;;;;;;;;;;5048871;28;20467;-77
2023/08/14 07:38:28;;;;;;;2.25;1.88;;;;;;;;;;5056975;28;20045;-77
2023/08/14 07:40:55;;;;;;;2.15;1.77;;;;;;;;;;5058413;28;20033;-78
2023/08/14 07:43:22;;;;;;;6.07;1.90;;;;;;;;;;5060476;28;20048;-80
2023/08/14 07:45:47;;;;;;;2.13;1.95;;;;;;;;;;5058102;28;20029;-78
2023/08/14 07:48:13;;;;;;;2.00;1.80;;;;;;;;;;5058067;28;20017;-77
2023/08/14 07:50:38;;;;;;;4.30;1.85;;;;;;;;;;5059947;28;20048;-78
2023/08/14 07:53:03;;;;;;;4.05;1.77;;;;;;;;;;5059221;28;20120;-80
2023/08/14 07:55:29;;;;;;;1.70;1.60;;;;;;;;;;5058354;28;20391;-78
2023/08/14 07:57:54;;;;;;;1.83;1.73;;;;;;;;;;5058035;28;20441;-78
2023/08/14 08:00:20;;;;;;;4.60;1.60;;;;;;;;;;5040694;28;20058;-78
2023/08/14 08:02:45;;;;;;;2.70;1.90;;;;;;;;;;5050772;28;20029;-78
2023/08/14 08:05:10;;;;;;;2.03;1.60;;;;;;;;;;5036704;28;20037;-78
2023/08/14 08:07:36;;;;;;;3.92;1.70;;;;;;;;;;5019618;28;20439;-78
2023/08/14 08:10:02;;;;;;;4.05;2.58;;;;;;;;;;5036908;28;20480;-79
2023/08/14 08:12:27;;;;;;;2.00;1.80;;;;;;;;;;5037166;28;20040;-77
2023/08/14 08:14:52;;;;;;;3.08;2.10;;;;;;;;;;5040486;28;20016;-78
2023/08/14 08:17:18;;;;;;;3.20;1.98;;;;;;;;;;5039161;28;20057;-77
2023/08/14 08:19:46;;;;;;;6.72;2.08;;;;;;;;;;5039089;28;20128;-78
2023/08/14 08:22:11;;;;;;;1.70;1.60;;;;;;;;;;5056373;28;20036;-78
2023/08/14 08:24:37;;;;;;;3.08;1.75;;;;;;;;;;5056325;28;20040;-78
2023/08/14 08:27:02;;;;;;;1.65;1.55;;;;;;;;;;5039299;28;20052;-77
2023/08/14 08:29:27;;;;;;;1.40;1.40;;;;;;;;;;5055910;28;20423;-78
2023/08/14 08:31:53;;;;;;;2.00;1.80;;;;;;;;;;5056803;28;20043;-78
2023/08/14 08:34:18;;;;;;;1.63;1.52;;;;;;;;;;5056494;28;20450;-78
2023/08/14 08:36:43;;;;;;;3.08;1.58;;;;;;;;;;5038375;28;20039;-78
2023/08/14 08:39:08;;;;;;;2.45;1.88;;;;;;;;;;5056946;28;20013;-77
2023/08/14 08:41:38;;;;;;;1.88;1.70;;;;;;;;;;5057823;28;20416;-79
2023/08/14 08:44:14;;;;;;;1.98;1.70;;;;;;;;;;5038476;28;20036;-79
2023/08/14 08:47:02;;;;;;;2.20;2.00;;;;;;;;;;5056134;28;20403;-79
2023/08/14 08:49:28;;;;;;;2.20;2.00;;;;;;;;;;5054717;28;20040;-77
2023/08/14 08:51:54;;;;;;;2.03;1.92;;;;;;;;;;5056559;28;20041;-78
2023/08/14 08:54:19;;;;;;;2.83;2.50;;;;;;;;;;5056226;28;20028;-78
2023/08/14 08:56:45;;;;;;;3.30;2.45;;;;;;;;;;5056325;28;20500;-78
2023/08/14 08:59:13;;;;;;;3.72;2.33;;;;;;;;;;5056080;28;20021;-78
2023/08/14 09:01:41;;;;;;;4.05;2.30;;;;;;;;;;5056194;28;20040;-78
2023/08/14 09:04:06;;;;;;;5.13;2.63;;;;;;;;;;5055009;28;20040;-77
2023/08/14 09:06:32;;;;;;;3.28;2.67;;;;;;;;;;5055276;28;20055;-77
2023/08/14 09:08:57;;;;;;;3.78;2.50;;;;;;;;;;5057389;28;20021;-79
2023/08/14 09:11:24;;;;;;;3.80;2.55;;;;;;;;;;5056706;28;20052;-79
2023/08/14 09:13:49;;;;;;;2.80;2.50;;;;;;;;;;5056432;28;20091;-79
2023/08/14 09:16:15;;;;;;;3.08;2.83;;;;;;;;;;5038800;28;20028;-78
2023/08/14 09:18:44;;;;;;;3.15;2.95;;;;;;;;;;5055001;28;20040;-78
2023/08/14 09:21:11;;;;;;;3.40;2.70;;;;;;;;;;5054948;28;20052;-78
2023/08/14 09:23:38;;;;;;;3.25;2.95;;;;;;;;;;5056789;28;20025;-78
2023/08/14 09:26:05;;;;;;;3.45;3.15;;;;;;;;;;5056109;28;20040;-78
2023/08/14 09:28:30;;;;;;;3.17;2.97;;;;;;;;;;5053930;28;20037;-78
2023/08/14 09:31:06;;;;;;;2.97;2.58;;;;;;;;;;5056278;28;20075;-79
2023/08/14 09:33:32;;;;;;;3.25;2.30;;;;;;;;;;5055966;28;20033;-78
2023/08/14 09:35:57;;;;;;;3.50;3.20;;;;;;;;;;5056999;28;20031;-79
2023/08/14 09:38:23;;;;;;;2.60;2.40;;;;;;;;;;5025437;28;20033;-78
2023/08/14 09:40:48;;;;;;;3.28;2.90;;;;;;;;;;5030116;28;20032;-78
2023/08/14 09:43:14;;;;;;;4.05;2.92;;;;;;;;;;5032402;28;20128;-78
2023/08/14 09:45:39;;;;;;;4.50;3.38;;;;;;;;;;5032650;28;20404;-78
2023/08/14 09:48:04;;;;;;;4.75;3.50;;;;;;;;;;5034814;28;20069;-78
2023/08/14 09:50:31;;;;;;;3.75;3.45;;;;;;;;;;5028401;28;20102;-78
2023/08/14 09:53:00;;;;;;;3.20;3.00;;;;;;;;;;5029005;28;20356;-78
2023/08/14 09:55:27;;;;;;;6.25;3.38;;;;;;;;;;5037616;28;20569;-78
2023/08/14 09:57:53;;;;;;;4.15;3.80;;;;;;;;;;5028345;28;20112;-79
2023/08/14 10:00:19;;;;;;;6.03;3.20;;;;;;;;;;5028747;28;20339;-78
2023/08/14 10:02:47;;;;;;;2.97;2.78;;;;;;;;;;5038844;28;20036;-79
2023/08/14 10:05:13;;;;;;;2.58;2.38;;;;;;;;;;5035625;28;20120;-79
2023/08/14 10:07:40;;;;;;;4.63;2.45;;;;;;;;;;5028791;28;20403;-78
2023/08/14 10:10:07;;;;;;;2.70;2.50;;;;;;;;;;5033377;28;20048;-79
2023/08/14 10:12:39;;;;;;;6.07;3.22;;;;;;;;;;5038168;28;20115;-78
2023/08/14 10:15:09;;;;;;;3.55;2.63;;;;;;;;;;5038615;28;20357;-78
2023/08/14 10:17:48;;;;;;;3.25;2.58;;;;;;;;;;5018603;28;20044;-79
2023/08/14 10:20:16;;;;;;;6.75;2.80;;;;;;;;;;5032270;28;20172;-78
2023/08/14 10:22:41;;;;;;;4.82;2.50;;;;;;;;;;5036057;28;20099;-79
2023/08/14 10:25:07;;;;;;;3.00;2.72;;;;;;;;;;5036298;28;20037;-78
2023/08/14 10:27:34;;;;;;;2.90;2.70;;;;;;;;;;5038080;28;20090;-78
2023/08/14 10:30:00;;;;;;;3.35;2.65;;;;;;;;;;5035302;28;20032;-79
2023/08/14 10:32:27;;;;;;;3.22;2.20;;;;;;;;;;5036169;28;20041;-78
2023/08/14 10:34:53;;;;;;;2.45;2.25;;;;;;;;;;5020150;28;20077;-78
2023/08/14 10:37:38;;;;;;;3.40;2.58;;;;;;;;;;5044645;28;20549;-78
2023/08/14 10:40:15;;;;;;;2.55;2.22;;;;;;;;;;5041323;28;20116;-79
2023/08/14 10:42:45;;;;;;;5.15;2.90;;;;;;;;;;5040759;28;20029;-79
2023/08/14 10:45:11;;;;;;;2.83;2.40;;;;;;;;;;5044641;28;20021;-78
2023/08/14 10:47:41;;;;;;;2.30;2.10;;;;;;;;;;5042713;28;20379;-79
2023/08/14 10:50:22;;;;;;;2.60;2.40;;;;;;;;;;5022270;28;20037;-79
2023/08/14 10:52:48;;;;;;;2.30;2.20;;;;;;;;;;5025649;28;20047;-79
2023/08/14 10:55:18;;;;;;;5.97;2.35;;;;;;;;;;5047639;28;20025;-79
2023/08/14 10:57:45;;;;;;;2.50;2.30;;;;;;;;;;5043708;28;20542;-79
2023/08/14 11:00:31;;;;;;;4.57;2.28;;;;;;;;;;5045530;28;20044;-79
2023/08/14 11:03:07;;;;;;;2.33;2.00;;;;;;;;;;5045201;28;20041;-79
2023/08/14 11:05:37;;;;;;;2.50;2.30;;;;;;;;;;5042509;28;20410;-79
2023/08/14 11:08:02;;;;;;;4.80;2.13;;;;;;;;;;5034096;28;20056;-80
2023/08/14 11:10:31;;;;;;;2.30;2.10;;;;;;;;;;5040948;28;20030;-78
2023/08/14 11:12:56;;;;;;;2.92;2.20;;;;;;;;;;5010995;28;20045;-79
2023/08/14 11:15:22;;;;;;;2.50;2.30;;;;;;;;;;5029478;28;20032;-78
2023/08/14 11:17:48;;;;;;;4.35;2.28;;;;;;;;;;5026246;28;20430;-77
2023/08/14 11:20:14;;;;;;;2.50;2.30;;;;;;;;;;5031240;28;20092;-80
2023/08/14 11:22:44;;;;;;;2.90;2.50;;;;;;;;;;5045615;28;20029;-80
2023/08/14 11:25:12;;;;;;;2.50;2.30;;;;;;;;;;5046973;28;20055;-78
2023/08/14 11:27:37;;;;;;;3.05;2.30;;;;;;;;;;5041746;28;20037;-78
2023/08/14 11:30:03;;;;;;;3.17;2.22;;;;;;;;;;5047706;28;20041;-79
2023/08/14 11:32:29;;;;;;;2.63;2.42;;;;;;;;;;5051383;28;20384;-79
2023/08/14 11:34:55;;;;;;;3.58;2.42;;;;;;;;;;5053064;28;20124;-78
2023/08/14 11:37:20;;;;;;;3.15;2.17;;;;;;;;;;5029912;28;20041;-79
2023/08/14 11:39:46;;;;;;;5.85;2.60;;;;;;;;;;5025836;28;20121;-79
2023/08/14 11:42:12;;;;;;;4.53;2.60;;;;;;;;;;5043738;28;20040;-79
2023/08/14 11:44:37;;;;;;;3.92;2.30;;;;;;;;;;5030171;28;20033;-78
2023/08/14 11:47:04;;;;;;;2.70;2.50;;;;;;;;;;5050770;28;20542;-79
2023/08/14 11:49:30;;;;;;;4.25;2.80;;;;;;;;;;5045033;28;20090;-79
2023/08/14 11:51:56;;;;;;;3.25;2.60;;;;;;;;;;5043633;28;20052;-79
2023/08/14 11:54:21;;;;;;;3.50;2.20;;;;;;;;;;5043017;28;20029;-80
2023/08/14 11:56:47;;;;;;;2.28;2.13;;;;;;;;;;5030081;28;20104;-78
2023/08/14 11:59:13;;;;;;;3.85;2.30;;;;;;;;;;5043222;28;20407;-79
2023/08/14 12:01:38;;;;;;;2.30;2.10;;;;;;;;;;5027059;28;20026;-79
2023/08/14 12:04:04;;;;;;;2.40;2.22;;;;;;;;;;5011408;28;20057;-79
2023/08/14 12:06:30;;;;;;;3.10;2.20;;;;;;;;;;5008535;28;20399;-79
2023/08/14 12:08:55;;;;;;;2.63;2.40;;;;;;;;;;5030759;28;20026;-79
2023/08/14 12:11:21;;;;;;;3.25;2.17;;;;;;;;;;5010378;28;20037;-80
2023/08/14 12:13:50;;;;;;;3.03;2.30;;;;;;;;;;5005030;28;20120;-78
2023/08/14 12:16:16;;;;;;;3.25;2.45;;;;;;;;;;5005463;28;20045;-79
2023/08/14 12:18:42;;;;;;;2.17;2.08;;;;;;;;;;5020824;28;20033;-79
2023/08/14 12:21:13;;;;;;;2.85;2.10;;;;;;;;;;5023344;28;20112;-79
2023/08/14 12:23:52;;;;;;;3.70;2.30;;;;;;;;;;5023603;28;20052;-79
2023/08/14 12:26:18;;;;;;;2.35;2.15;;;;;;;;;;5010297;28;20513;-79
2023/08/14 12:28:44;;;;;;;2.92;2.40;;;;;;;;;;5022861;28;20133;-79
2023/08/14 12:31:10;;;;;;;2.20;2.10;;;;;;;;;;5017648;28;20510;-80
2023/08/14 12:33:35;;;;;;;3.25;2.60;;;;;;;;;;5044718;28;20029;-79
2023/08/14 12:36:00;;;;;;;2.35;2.20;;;;;;;;;;5028404;28;20025;-79
2023/08/14 12:38:26;;;;;;;2.67;2.40;;;;;;;;;;5032623;28;20040;-79
2023/08/14 12:40:52;;;;;;;2.80;2.60;;;;;;;;;;5029617;28;20071;-78
2023/08/14 12:43:17;;;;;;;3.80;2.40;;;;;;;;;;5037805;28;20061;-78
2023/08/14 12:45:43;;;;;;;4.10;2.80;;;;;;;;;;5036312;28;20079;-79
2023/08/14 12:48:08;;;;;;;2.70;2.10;;;;;;;;;;5016517;28;20029;-78
2023/08/14 12:50:34;;;;;;;4.00;2.40;;;;;;;;;;5034941;28;20108;-78
2023/08/14 12:52:59;;;;;;;2.67;2.17;;;;;;;;;;5004309;28;20044;-78
2023/08/14 12:55:24;;;;;;;3.58;2.60;;;;;;;;;;5022063;28;20038;-78
2023/08/14 12:57:50;;;;;;;3.13;2.00;;;;;;;;;;5007696;28;20533;-78
2023/08/14 13:00:15;;;;;;;5.03;2.42;;;;;;;;;;5026457;28;20049;-78
2023/08/14 13:02:41;;;;;;;2.53;2.30;;;;;;;;;;5018835;28;20025;-78
2023/08/14 13:05:07;;;;;;;2.50;2.30;;;;;;;;;;5005206;28;20444;-78
2023/08/14 13:07:32;;;;;;;2.92;2.20;;;;;;;;;;5020581;28;20115;-78
2023/08/14 13:09:58;;;;;;;2.83;2.30;;;;;;;;;;5020595;28;20429;-77
2023/08/14 13:12:23;;;;;;;3.08;2.60;;;;;;;;;;5024943;28;20641;-78
2023/08/14 13:14:48;;;;;;;2.67;2.47;;;;;;;;;;5042955;28;20024;-77
2023/08/14 13:17:14;;;;;;;3.28;2.22;;;;;;;;;;5032481;28;20609;-78
2023/08/14 13:19:39;;;;;;;3.33;2.45;;;;;;;;;;5018196;28;20029;-78
2023/08/14 13:22:05;;;;;;;2.58;2.38;;;;;;;;;;5032181;28;20037;-78
2023/08/14 13:24:31;;;;;;;2.45;2.25;;;;;;;;;;5036384;28;20499;-78
2023/08/14 13:26:56;;;;;;;6.88;2.70;;;;;;;;;;5023024;28;20102;-78
2023/08/14 13:29:21;;;;;;;2.55;2.17;;;;;;;;;;5034452;28;20053;-78
2023/08/14 13:31:46;;;;;;;2.40;2.20;;;;;;;;;;5018514;28;20558;-78
2023/08/14 13:34:12;;;;;;;3.55;2.63;;;;;;;;;;5039044;28;20033;-78
2023/08/14 13:36:37;;;;;;;4.35;2.30;;;;;;;;;;5017749;28;20052;-78
2023/08/14 13:39:03;;;;;;;5.97;2.50;;;;;;;;;;5014150;28;20034;-78
2023/08/14 13:41:28;;;;;;;2.50;2.30;;;;;;;;;;5022599;28;20057;-78
2023/08/14 13:43:54;;;;;;;2.90;2.20;;;;;;;;;;5022288;28;20038;-78
2023/08/14 13:46:19;;;;;;;2.30;2.10;;;;;;;;;;5000983;28;20531;-78
2023/08/14 13:48:44;;;;;;;2.75;2.53;;;;;;;;;;5009733;28;20614;-77
2023/08/14 13:51:10;;;;;;;2.58;2.38;;;;;;;;;;5021223;28;20018;-77
2023/08/14 13:53:36;;;;;;;2.45;2.25;;;;;;;;;;5024876;28;20032;-78
2023/08/14 13:56:01;;;;;;;2.67;2.45;;;;;;;;;;5004891;28;20060;-78
2023/08/14 13:58:26;;;;;;;2.92;2.35;;;;;;;;;;5004405;28;20116;-79
2023/08/14 14:00:52;;;;;;;2.60;2.40;;;;;;;;;;5019395;28;20503;-77
2023/08/14 14:03:18;;;;;;;4.15;2.45;;;;;;;;;;5003589;28;20128;-79
2023/08/14 14:05:43;;;;;;;2.85;2.42;;;;;;;;;;5024801;28;20025;-79
2023/08/14 14:08:08;;;;;;;2.97;2.67;;;;;;;;;;5020120;28;20037;-78
2023/08/14 14:10:33;;;;;;;2.60;2.40;;;;;;;;;;5032667;28;20033;-79
2023/08/14 14:12:59;;;;;;;3.30;2.55;;;;;;;;;;5014720;28;20044;-77
2023/08/14 14:15:24;;;;;;;3.15;2.40;;;;;;;;;;5017235;28;20091;-77
2023/08/14 14:17:50;;;;;;;2.60;2.35;;;;;;;;;;5033384;28;20588;-77
2023/08/14 14:20:16;;;;;;;4.35;2.88;;;;;;;;;;5011028;28;20049;-77
2023/08/14 14:22:42;;;;;;;4.63;2.30;;;;;;;;;;5023139;28;20040;-77
2023/08/14 14:25:08;;;;;;;3.22;2.60;;;;;;;;;;5031690;28;20033;-78
2023/08/14 14:27:33;;;;;;;4.38;2.65;;;;;;;;;;5028524;28;20660;-78
2023/08/14 14:29:59;;;;;;;2.97;2.60;;;;;;;;;;5011046;28;20412;-78
2023/08/14 14:32:24;;;;;;;2.70;2.50;;;;;;;;;;5013599;28;20053;-77
2023/08/14 14:34:49;;;;;;;2.90;2.30;;;;;;;;;;5031692;28;20041;-78
2023/08/14 14:37:15;;;;;;;3.22;2.25;;;;;;;;;;5031438;28;20388;-78